Time,TemperatureF,DewpointF,PressureIn,WindDirection,WindDirectionDegrees,WindSpeedMPH,WindSpeedGustMPH,Humidity,HourlyPrecipIn,Conditions,Clouds,dailyrainin,SoftwareType,DateUTC
2013-01-31 00:05:00,24.6,4.8,29.34,North,-999,-999.0,-999.0,42,0.00,,,0.00,meteohub,2013-01-31 06:05:00,
2013-01-31 00:10:00,24.6,4.8,29.34,North,-999,-999.0,-999.0,42,0.00,,,0.00,meteohub,2013-01-31 06:10:00,
2013-01-31 00:15:00,24.4,4.6,29.34,North,-999,-999.0,-999.0,42,0.00,,,0.00,meteohub,2013-01-31 06:15:00,
2013-01-31 00:20:00,24.3,4.5,29.34,North,-999,-999.0,-999.0,42,0.00,,,0.00,meteohub,2013-01-31 06:20:00,
2013-01-31 00:26:00,24.1,4.3,29.34,North,-999,-999.0,-999.0,42,0.00,,,0.00,meteohub,2013-01-31 06:26:00,
2013-01-31 00:31:00,23.9,4.1,29.34,North,-999,-999.0,-999.0,42,0.00,,,0.00,meteohub,2013-01-31 06:31:00,
2013-01-31 00:37:00,23.7,3.9,29.34,North,-999,-999.0,-999.0,42,0.00,,,0.00,meteohub,2013-01-31 06:37:00,
2013-01-31 00:42:00,23.5,3.7,29.34,North,-999,-999.0,-999.0,42,0.00,,,0.00,meteohub,2013-01-31 06:42:00,
2013-01-31 00:47:00,23.5,3.7,29.34,North,-999,-999.0,-999.0,42,0.00,,,0.00,meteohub,2013-01-31 06:47:00,
2013-01-31 00:52:00,23.2,3.6,29.34,North,-999,-999.0,-999.0,42,0.00,,,0.00,meteohub,2013-01-31 06:52:00,
2013-01-31 00:57:00,22.8,3.7,29.34,North,-999,-999.0,-999.0,43,0.00,,,0.00,meteohub,2013-01-31 06:57:00,
2013-01-31 01:02:00,22.6,3.6,29.34,North,-999,-999.0,-999.0,43,0.00,,,0.00,meteohub,2013-01-31 07:02:00,
2013-01-31 01:08:00,22.5,3.4,29.34,North,-999,-999.0,-999.0,43,0.00,,,0.00,meteohub,2013-01-31 07:08:00,
2013-01-31 01:13:00,22.3,3.2,29.34,North,-999,-999.0,-999.0,43,0.00,,,0.00,meteohub,2013-01-31 07:13:00,
2013-01-31 01:18:00,22.1,3.0,29.34,North,-999,-999.0,-999.0,43,0.00,,,0.00,meteohub,2013-01-31 07:18:00,
2013-01-31 01:24:00,21.9,2.8,29.34,North,-999,-999.0,-999.0,43,0.00,,,0.00,meteohub,2013-01-31 07:24:00,
2013-01-31 01:29:00,21.9,2.8,29.34,North,-999,-999.0,-999.0,43,0.00,,,0.00,meteohub,2013-01-31 07:29:00,
2013-01-31 01:34:00,21.7,2.7,29.34,North,-999,-999.0,-999.0,43,0.00,,,0.00,meteohub,2013-01-31 07:34:00,
2013-01-31 01:40:00,21.6,2.5,29.34,North,-999,-999.0,-999.0,43,0.00,,,0.00,meteohub,2013-01-31 07:40:00,
2013-01-31 01:45:00,21.4,2.3,29.34,North,-999,-999.0,-999.0,43,0.00,,,0.00,meteohub,2013-01-31 07:45:00,
2013-01-31 01:51:00,21.2,2.1,29.34,North,-999,-999.0,-999.0,43,0.00,,,0.00,meteohub,2013-01-31 07:51:00,
2013-01-31 01:56:00,21.6,2.5,29.34,North,-999,-999.0,-999.0,43,0.00,,,0.00,meteohub,2013-01-31 07:56:00,
2013-01-31 02:01:00,21.7,2.7,29.34,North,-999,-999.0,-999.0,43,0.00,,,0.00,meteohub,2013-01-31 08:01:00,
2013-01-31 02:07:00,21.6,2.5,29.34,North,-999,-999.0,-999.0,43,0.00,,,0.00,meteohub,2013-01-31 08:07:00,
2013-01-31 02:12:00,21.6,2.5,29.34,North,-999,-999.0,-999.0,43,0.00,,,0.00,meteohub,2013-01-31 08:12:00,
2013-01-31 02:17:00,21.6,2.5,29.34,North,-999,-999.0,-999.0,43,0.00,,,0.00,meteohub,2013-01-31 08:17:00,
2013-01-31 02:22:00,21.6,2.5,29.34,North,-999,-999.0,-999.0,43,0.00,,,0.00,meteohub,2013-01-31 08:22:00,
2013-01-31 02:27:00,21.6,2.5,29.34,North,-999,-999.0,-999.0,43,0.00,,,0.00,meteohub,2013-01-31 08:27:00,
2013-01-31 02:32:00,21.9,2.8,29.34,North,-999,-999.0,-999.0,43,0.00,,,0.00,meteohub,2013-01-31 08:32:00,
2013-01-31 02:38:00,22.1,3.0,29.34,North,-999,-999.0,-999.0,43,0.00,,,0.00,meteohub,2013-01-31 08:38:00,
2013-01-31 02:43:00,22.8,3.7,29.34,North,-999,-999.0,-999.0,43,0.00,,,0.00,meteohub,2013-01-31 08:43:00,
2013-01-31 02:48:00,23.2,3.9,29.34,North,-999,-999.0,-999.0,43,0.00,,,0.00,meteohub,2013-01-31 08:48:00,
2013-01-31 02:53:00,23.5,3.7,29.34,North,-999,-999.0,-999.0,42,0.00,,,0.00,meteohub,2013-01-31 08:53:00,
2013-01-31 02:59:00,23.5,3.7,29.31,North,-999,-999.0,-999.0,42,0.00,,,0.00,meteohub,2013-01-31 08:59:00,
2013-01-31 03:04:00,23.5,3.7,29.31,North,-999,-999.0,-999.0,42,0.00,,,0.00,meteohub,2013-01-31 09:04:00,
2013-01-31 03:09:00,23.5,3.7,29.34,North,-999,-999.0,-999.0,42,0.00,,,0.00,meteohub,2013-01-31 09:09:00,
2013-01-31 03:15:00,23.7,3.9,29.34,North,-999,-999.0,-999.0,42,0.00,,,0.00,meteohub,2013-01-31 09:15:00,
2013-01-31 03:20:00,23.9,4.1,29.34,North,-999,-999.0,-999.0,42,0.00,,,0.00,meteohub,2013-01-31 09:20:00,
2013-01-31 03:25:00,23.9,4.1,29.34,North,-999,-999.0,-999.0,42,0.00,,,0.00,meteohub,2013-01-31 09:25:00,
2013-01-31 03:31:00,23.9,4.1,29.34,North,-999,-999.0,-999.0,42,0.00,,,0.00,meteohub,2013-01-31 09:31:00,
2013-01-31 03:36:00,23.9,4.1,29.34,North,-999,-999.0,-999.0,42,0.00,,,0.00,meteohub,2013-01-31 09:36:00,
2013-01-31 03:41:00,24.1,4.3,29.31,North,-999,-999.0,-999.0,42,0.00,,,0.00,meteohub,2013-01-31 09:41:00,
2013-01-31 03:47:00,24.3,4.5,29.31,North,-999,-999.0,-999.0,42,0.00,,,0.00,meteohub,2013-01-31 09:47:00,
2013-01-31 03:52:00,24.4,4.6,29.31,North,-999,-999.0,-999.0,42,0.00,,,0.00,meteohub,2013-01-31 09:52:00,
2013-01-31 03:57:00,24.4,4.6,29.31,North,-999,-999.0,-999.0,42,0.00,,,0.00,meteohub,2013-01-31 09:57:00,
2013-01-31 04:02:00,24.4,4.6,29.31,North,-999,-999.0,-999.0,42,0.00,,,0.00,meteohub,2013-01-31 10:02:00,
2013-01-31 04:07:00,24.6,4.8,29.31,North,-999,-999.0,-999.0,42,0.00,,,0.00,meteohub,2013-01-31 10:07:00,
2013-01-31 04:12:00,24.6,4.8,29.31,North,-999,-999.0,-999.0,42,0.00,,,0.00,meteohub,2013-01-31 10:12:00,
2013-01-31 04:17:00,24.6,4.8,29.31,North,-999,-999.0,-999.0,42,0.00,,,0.00,meteohub,2013-01-31 10:17:00,
2013-01-31 04:22:00,24.6,4.8,29.31,North,-999,-999.0,-999.0,42,0.00,,,0.00,meteohub,2013-01-31 10:22:00,
2013-01-31 04:27:00,24.6,4.8,29.31,North,-999,-999.0,-999.0,42,0.00,,,0.00,meteohub,2013-01-31 10:27:00,
2013-01-31 04:33:00,24.6,4.8,29.31,North,-999,-999.0,-999.0,42,0.00,,,0.00,meteohub,2013-01-31 10:33:00,
2013-01-31 04:38:00,24.8,5.0,29.31,North,-999,-999.0,-999.0,42,0.00,,,0.00,meteohub,2013-01-31 10:38:00,
2013-01-31 04:43:00,25.0,5.2,29.31,North,-999,-999.0,-999.0,42,0.00,,,0.00,meteohub,2013-01-31 10:43:00,
2013-01-31 04:48:00,25.0,5.2,29.31,North,-999,-999.0,-999.0,42,0.00,,,0.00,meteohub,2013-01-31 10:48:00,
2013-01-31 04:54:00,24.8,5.0,29.31,North,-999,-999.0,-999.0,42,0.00,,,0.00,meteohub,2013-01-31 10:54:00,
2013-01-31 04:59:00,24.8,5.0,29.31,North,-999,-999.0,-999.0,42,0.00,,,0.00,meteohub,2013-01-31 10:59:00,
2013-01-31 05:04:00,24.6,4.8,29.31,North,-999,-999.0,-999.0,42,0.00,,,0.00,meteohub,2013-01-31 11:04:00,
2013-01-31 05:10:00,24.8,5.0,29.31,North,-999,-999.0,-999.0,42,0.00,,,0.00,meteohub,2013-01-31 11:10:00,
2013-01-31 05:15:00,25.0,5.2,29.31,North,-999,-999.0,-999.0,42,0.00,,,0.00,meteohub,2013-01-31 11:15:00,
2013-01-31 05:20:00,25.0,5.2,29.31,North,-999,-999.0,-999.0,42,0.00,,,0.00,meteohub,2013-01-31 11:20:00,
2013-01-31 05:26:00,25.0,5.2,29.31,North,-999,-999.0,-999.0,42,0.00,,,0.00,meteohub,2013-01-31 11:26:00,
2013-01-31 05:31:00,25.2,5.4,29.31,North,-999,-999.0,-999.0,42,0.00,,,0.00,meteohub,2013-01-31 11:31:00,
2013-01-31 05:36:00,25.2,5.4,29.31,North,-999,-999.0,-999.0,42,0.00,,,0.00,meteohub,2013-01-31 11:36:00,
2013-01-31 05:42:00,25.2,5.4,29.31,North,-999,-999.0,-999.0,42,0.00,,,0.00,meteohub,2013-01-31 11:42:00,
2013-01-31 05:47:00,25.2,5.4,29.31,North,-999,-999.0,-999.0,42,0.00,,,0.00,meteohub,2013-01-31 11:47:00,
2013-01-31 05:52:00,25.0,5.2,29.31,North,-999,-999.0,-999.0,42,0.00,,,0.00,meteohub,2013-01-31 11:52:00,
2013-01-31 05:57:00,25.0,5.2,29.31,North,-999,-999.0,-999.0,42,0.00,,,0.00,meteohub,2013-01-31 11:57:00,
2013-01-31 06:02:00,25.0,5.2,29.31,North,-999,-999.0,-999.0,42,0.00,,,0.00,meteohub,2013-01-31 12:02:00,
2013-01-31 06:07:00,24.8,5.5,29.31,North,-999,-999.0,-999.0,43,0.00,,,0.00,meteohub,2013-01-31 12:07:00,
2013-01-31 06:12:00,24.6,5.4,29.31,North,-999,-999.0,-999.0,43,0.00,,,0.00,meteohub,2013-01-31 12:12:00,
2013-01-31 06:17:00,24.4,5.2,29.31,North,-999,-999.0,-999.0,43,0.00,,,0.00,meteohub,2013-01-31 12:17:00,
2013-01-31 06:22:00,24.4,5.2,29.31,North,-999,-999.0,-999.0,43,0.00,,,0.00,meteohub,2013-01-31 12:22:00,
2013-01-31 06:27:00,24.3,5.0,29.34,North,-999,-999.0,-999.0,43,0.00,,,0.00,meteohub,2013-01-31 12:27:00,
2013-01-31 06:33:00,24.3,5.0,29.34,North,-999,-999.0,-999.0,43,0.00,,,0.00,meteohub,2013-01-31 12:33:00,
2013-01-31 06:38:00,24.1,4.8,29.34,North,-999,-999.0,-999.0,43,0.00,,,0.00,meteohub,2013-01-31 12:38:00,
2013-01-31 06:43:00,23.7,4.5,29.31,North,-999,-999.0,-999.0,43,0.00,,,0.00,meteohub,2013-01-31 12:43:00,
2013-01-31 06:49:00,23.7,4.5,29.31,North,-999,-999.0,-999.0,43,0.00,,,0.00,meteohub,2013-01-31 12:49:00,
2013-01-31 06:54:00,23.5,4.3,29.31,North,-999,-999.0,-999.0,43,0.00,,,0.00,meteohub,2013-01-31 12:54:00,
2013-01-31 06:59:00,23.5,4.3,29.34,North,-999,-999.0,-999.0,43,0.00,,,0.00,meteohub,2013-01-31 12:59:00,
2013-01-31 07:05:00,23.5,4.3,29.34,North,-999,-999.0,-999.0,43,0.00,,,0.00,meteohub,2013-01-31 13:05:00,
2013-01-31 07:10:00,23.4,4.1,29.34,North,-999,-999.0,-999.0,43,0.00,,,0.00,meteohub,2013-01-31 13:10:00,
2013-01-31 07:15:00,23.4,4.1,29.34,North,-999,-999.0,-999.0,43,0.00,,,0.00,meteohub,2013-01-31 13:15:00,
2013-01-31 07:20:00,23.4,4.1,29.34,North,-999,-999.0,-999.0,43,0.00,,,0.00,meteohub,2013-01-31 13:20:00,
2013-01-31 07:26:00,23.5,4.8,29.36,North,-999,-999.0,-999.0,44,0.00,,,0.00,meteohub,2013-01-31 13:26:00,
2013-01-31 07:31:00,23.9,5.2,29.36,North,-999,-999.0,-999.0,44,0.00,,,0.00,meteohub,2013-01-31 13:31:00,
2013-01-31 07:36:00,23.9,5.2,29.36,North,-999,-999.0,-999.0,44,0.00,,,0.00,meteohub,2013-01-31 13:36:00,
2013-01-31 07:42:00,24.1,5.4,29.36,North,-999,-999.0,-999.0,44,0.00,,,0.00,meteohub,2013-01-31 13:42:00,
2013-01-31 07:47:00,24.1,4.8,29.36,North,-999,-999.0,-999.0,43,0.00,,,0.00,meteohub,2013-01-31 13:47:00,
2013-01-31 07:52:00,24.3,5.0,29.36,North,-999,-999.0,-999.0,43,0.00,,,0.00,meteohub,2013-01-31 13:52:00,
2013-01-31 07:57:00,24.4,5.2,29.36,North,-999,-999.0,-999.0,43,0.00,,,0.00,meteohub,2013-01-31 13:57:00,
2013-01-31 08:02:00,24.4,5.2,29.36,North,-999,-999.0,-999.0,43,0.00,,,0.00,meteohub,2013-01-31 14:02:00,
2013-01-31 08:07:00,24.8,5.5,29.36,North,-999,-999.0,-999.0,43,0.00,,,0.00,meteohub,2013-01-31 14:07:00,
2013-01-31 08:12:00,25.0,5.2,29.39,North,-999,-999.0,-999.0,42,0.00,,,0.00,meteohub,2013-01-31 14:12:00,
2013-01-31 08:17:00,25.2,5.4,29.39,North,-999,-999.0,-999.0,42,0.00,,,0.00,meteohub,2013-01-31 14:17:00,
2013-01-31 08:22:00,25.2,5.4,29.39,North,-999,-999.0,-999.0,42,0.00,,,0.00,meteohub,2013-01-31 14:22:00,
2013-01-31 08:27:00,25.0,5.2,29.39,North,-999,-999.0,-999.0,42,0.00,,,0.00,meteohub,2013-01-31 14:27:00,
2013-01-31 08:32:00,24.6,4.8,29.39,North,-999,-999.0,-999.0,42,0.00,,,0.00,meteohub,2013-01-31 14:32:00,
2013-01-31 08:37:00,24.6,4.8,29.39,North,-999,-999.0,-999.0,42,0.00,,,0.00,meteohub,2013-01-31 14:37:00,
2013-01-31 08:42:00,24.6,4.8,29.39,North,-999,-999.0,-999.0,42,0.00,,,0.00,meteohub,2013-01-31 14:42:00,
2013-01-31 08:47:00,24.8,5.0,29.39,North,-999,-999.0,-999.0,42,0.00,,,0.00,meteohub,2013-01-31 14:47:00,
2013-01-31 08:52:00,25.0,5.2,29.39,North,-999,-999.0,-999.0,42,0.00,,,0.00,meteohub,2013-01-31 14:52:00,
2013-01-31 08:57:00,25.2,5.4,29.42,North,-999,-999.0,-999.0,42,0.00,,,0.00,meteohub,2013-01-31 14:57:00,
2013-01-31 09:02:00,25.2,5.4,29.42,North,-999,-999.0,-999.0,42,0.00,,,0.00,meteohub,2013-01-31 15:02:00,
2013-01-31 09:07:00,25.2,5.4,29.42,North,-999,-999.0,-999.0,42,0.00,,,0.00,meteohub,2013-01-31 15:07:00,
2013-01-31 09:12:00,25.2,5.4,29.42,North,-999,-999.0,-999.0,42,0.00,,,0.00,meteohub,2013-01-31 15:12:00,
2013-01-31 09:17:00,25.3,5.4,29.42,North,-999,-999.0,-999.0,42,0.00,,,0.00,meteohub,2013-01-31 15:17:00,
2013-01-31 09:22:00,25.5,5.5,29.42,North,-999,-999.0,-999.0,42,0.00,,,0.00,meteohub,2013-01-31 15:22:00,
2013-01-31 09:27:00,25.5,5.5,29.42,North,-999,-999.0,-999.0,42,0.00,,,0.00,meteohub,2013-01-31 15:27:00,
2013-01-31 09:32:00,25.9,5.9,29.42,North,-999,-999.0,-999.0,42,0.00,,,0.00,meteohub,2013-01-31 15:32:00,
2013-01-31 09:37:00,26.1,6.1,29.42,North,-999,-999.0,-999.0,42,0.00,,,0.00,meteohub,2013-01-31 15:37:00,
2013-01-31 09:42:00,25.9,5.9,29.42,North,-999,-999.0,-999.0,42,0.00,,,0.00,meteohub,2013-01-31 15:42:00,
2013-01-31 09:47:00,26.1,6.1,29.42,North,-999,-999.0,-999.0,42,0.00,,,0.00,meteohub,2013-01-31 15:47:00,
2013-01-31 09:52:00,26.4,6.4,29.42,North,-999,-999.0,-999.0,42,0.00,,,0.00,meteohub,2013-01-31 15:52:00,
2013-01-31 09:57:00,26.6,6.6,29.42,North,-999,-999.0,-999.0,42,0.00,,,0.00,meteohub,2013-01-31 15:57:00,
2013-01-31 10:03:00,26.6,6.6,29.42,North,-999,-999.0,-999.0,42,0.00,,,0.00,meteohub,2013-01-31 16:03:00,
2013-01-31 10:08:00,26.4,6.4,29.42,North,-999,-999.0,-999.0,42,0.00,,,0.00,meteohub,2013-01-31 16:08:00,
2013-01-31 10:13:00,26.1,6.1,29.45,North,-999,-999.0,-999.0,42,0.00,,,0.00,meteohub,2013-01-31 16:13:00,
2013-01-31 10:19:00,26.2,6.3,29.45,North,-999,-999.0,-999.0,42,0.00,,,0.00,meteohub,2013-01-31 16:19:00,
2013-01-31 10:24:00,26.1,6.1,29.45,North,-999,-999.0,-999.0,42,0.00,,,0.00,meteohub,2013-01-31 16:24:00,
2013-01-31 10:29:00,26.4,6.4,29.45,North,-999,-999.0,-999.0,42,0.00,,,0.00,meteohub,2013-01-31 16:29:00,
2013-01-31 10:35:00,26.4,6.4,29.45,North,-999,-999.0,-999.0,42,0.00,,,0.00,meteohub,2013-01-31 16:35:00,
2013-01-31 10:40:00,26.6,6.6,29.45,North,-999,-999.0,-999.0,42,0.00,,,0.00,meteohub,2013-01-31 16:40:00,
2013-01-31 10:45:00,26.1,6.1,29.45,North,-999,-999.0,-999.0,42,0.00,,,0.00,meteohub,2013-01-31 16:45:00,
2013-01-31 10:50:00,25.7,5.7,29.45,North,-999,-999.0,-999.0,42,0.00,,,0.00,meteohub,2013-01-31 16:50:00,
2013-01-31 10:56:00,25.9,5.9,29.45,North,-999,-999.0,-999.0,42,0.00,,,0.00,meteohub,2013-01-31 16:56:00,
2013-01-31 11:01:00,25.9,5.9,29.45,North,-999,-999.0,-999.0,42,0.00,,,0.00,meteohub,2013-01-31 17:01:00,
2013-01-31 11:06:00,26.1,6.1,29.45,North,-999,-999.0,-999.0,42,0.00,,,0.00,meteohub,2013-01-31 17:06:00,
2013-01-31 11:12:00,25.7,5.7,29.45,North,-999,-999.0,-999.0,42,0.00,,,0.00,meteohub,2013-01-31 17:12:00,
2013-01-31 11:17:00,25.3,5.4,29.45,North,-999,-999.0,-999.0,42,0.00,,,0.00,meteohub,2013-01-31 17:17:00,
2013-01-31 11:22:00,25.2,5.4,29.45,North,-999,-999.0,-999.0,42,0.00,,,0.00,meteohub,2013-01-31 17:22:00,
2013-01-31 11:27:00,25.2,5.4,29.48,North,-999,-999.0,-999.0,42,0.00,,,0.00,meteohub,2013-01-31 17:27:00,
2013-01-31 11:33:00,24.8,5.0,29.48,North,-999,-999.0,-999.0,42,0.00,,,0.00,meteohub,2013-01-31 17:33:00,
2013-01-31 11:38:00,24.6,4.8,29.48,North,-999,-999.0,-999.0,42,0.00,,,0.00,meteohub,2013-01-31 17:38:00,
2013-01-31 11:43:00,24.4,4.6,29.48,North,-999,-999.0,-999.0,42,0.00,,,0.00,meteohub,2013-01-31 17:43:00,
2013-01-31 11:49:00,24.8,5.0,29.48,North,-999,-999.0,-999.0,42,0.00,,,0.00,meteohub,2013-01-31 17:49:00,
2013-01-31 11:54:00,25.0,5.2,29.48,North,-999,-999.0,-999.0,42,0.00,,,0.00,meteohub,2013-01-31 17:54:00,
2013-01-31 11:59:00,25.2,5.4,29.48,North,-999,-999.0,-999.0,42,0.00,,,0.00,meteohub,2013-01-31 17:59:00,
2013-01-31 12:05:00,25.0,5.2,29.48,North,-999,-999.0,-999.0,42,0.00,,,0.00,meteohub,2013-01-31 18:05:00,
2013-01-31 12:10:00,24.8,5.0,29.48,North,-999,-999.0,-999.0,42,0.00,,,0.00,meteohub,2013-01-31 18:10:00,
2013-01-31 12:15:00,24.4,4.6,29.48,North,-999,-999.0,-999.0,42,0.00,,,0.00,meteohub,2013-01-31 18:15:00,
2013-01-31 12:20:00,24.3,4.5,29.48,North,-999,-999.0,-999.0,42,0.00,,,0.00,meteohub,2013-01-31 18:20:00,
2013-01-31 12:26:00,23.9,4.1,29.48,North,-999,-999.0,-999.0,42,0.00,,,0.00,meteohub,2013-01-31 18:26:00,
2013-01-31 12:31:00,24.1,4.3,29.48,North,-999,-999.0,-999.0,42,0.00,,,0.00,meteohub,2013-01-31 18:31:00,
2013-01-31 12:36:00,24.3,4.5,29.48,North,-999,-999.0,-999.0,42,0.00,,,0.00,meteohub,2013-01-31 18:36:00,
2013-01-31 12:42:00,23.7,3.9,29.51,North,-999,-999.0,-999.0,42,0.00,,,0.00,meteohub,2013-01-31 18:42:00,
2013-01-31 12:47:00,23.4,3.6,29.51,North,-999,-999.0,-999.0,42,0.00,,,0.00,meteohub,2013-01-31 18:47:00,
2013-01-31 12:52:00,23.2,3.6,29.51,North,-999,-999.0,-999.0,42,0.00,,,0.00,meteohub,2013-01-31 18:52:00,
2013-01-31 12:57:00,23.2,3.6,29.51,North,-999,-999.0,-999.0,42,0.00,,,0.00,meteohub,2013-01-31 18:57:00,
2013-01-31 13:02:00,22.6,3.6,29.51,North,-999,-999.0,-999.0,43,0.00,,,0.00,meteohub,2013-01-31 19:02:00,
2013-01-31 13:07:00,22.3,2.7,29.51,North,-999,-999.0,-999.0,42,0.00,,,0.00,meteohub,2013-01-31 19:07:00,
2013-01-31 13:12:00,22.3,3.2,29.51,North,-999,-999.0,-999.0,43,0.00,,,0.00,meteohub,2013-01-31 19:12:00,
2013-01-31 13:17:00,22.3,2.7,29.51,North,-999,-999.0,-999.0,42,0.00,,,0.00,meteohub,2013-01-31 19:17:00,
2013-01-31 13:22:00,22.3,2.7,29.51,North,-999,-999.0,-999.0,42,-99.99,,,0.00,meteohub,2013-01-31 19:22:00,
2013-01-31 13:27:00,22.5,3.4,29.51,North,-999,-999.0,-999.0,43,0.00,,,0.00,meteohub,2013-01-31 19:27:00,
2013-01-31 13:32:00,22.3,3.2,29.51,North,-999,-999.0,-999.0,43,0.00,,,0.00,meteohub,2013-01-31 19:32:00,
2013-01-31 13:38:00,22.5,3.4,29.51,North,-999,-999.0,-999.0,43,0.00,,,0.00,meteohub,2013-01-31 19:38:00,
2013-01-31 13:43:00,22.6,3.6,29.54,North,-999,-999.0,-999.0,43,0.00,,,0.00,meteohub,2013-01-31 19:43:00,
2013-01-31 13:48:00,22.8,3.7,29.54,North,-999,-999.0,-999.0,43,0.00,,,0.00,meteohub,2013-01-31 19:48:00,
2013-01-31 13:54:00,22.8,3.7,29.54,North,-999,-999.0,-999.0,43,0.00,,,0.00,meteohub,2013-01-31 19:54:00,
2013-01-31 13:59:00,23.0,3.9,29.54,North,-999,-999.0,-999.0,43,0.00,,,0.00,meteohub,2013-01-31 19:59:00,
2013-01-31 14:04:00,22.8,3.7,29.54,North,-999,-999.0,-999.0,43,0.00,,,0.00,meteohub,2013-01-31 20:04:00,
2013-01-31 14:10:00,23.0,3.9,29.54,North,-999,-999.0,-999.0,43,0.00,,,0.00,meteohub,2013-01-31 20:10:00,
2013-01-31 14:15:00,23.2,3.6,29.54,North,-999,-999.0,-999.0,42,0.00,,,0.00,meteohub,2013-01-31 20:15:00,
2013-01-31 14:21:00,22.3,2.7,29.54,North,-999,-999.0,-999.0,42,0.00,,,0.00,meteohub,2013-01-31 20:21:00,
2013-01-31 14:26:00,22.5,2.8,29.54,North,-999,-999.0,-999.0,42,0.00,,,0.00,meteohub,2013-01-31 20:26:00,
2013-01-31 14:31:00,21.9,2.3,29.54,North,-999,-999.0,-999.0,42,0.00,,,0.00,meteohub,2013-01-31 20:31:00,
2013-01-31 14:36:00,21.9,2.3,29.54,North,-999,-999.0,-999.0,42,0.00,,,0.00,meteohub,2013-01-31 20:36:00,
2013-01-31 14:42:00,21.6,1.9,29.54,North,-999,-999.0,-999.0,42,0.00,,,0.00,meteohub,2013-01-31 20:42:00,
2013-01-31 14:47:00,22.1,2.5,29.54,North,-999,-999.0,-999.0,42,0.00,,,0.00,meteohub,2013-01-31 20:47:00,
2013-01-31 14:52:00,21.9,2.3,29.54,North,-999,-999.0,-999.0,42,0.00,,,0.00,meteohub,2013-01-31 20:52:00,
2013-01-31 14:57:00,22.3,2.7,29.57,North,-999,-999.0,-999.0,42,0.00,,,0.00,meteohub,2013-01-31 20:57:00,
2013-01-31 15:03:00,21.9,2.3,29.57,North,-999,-999.0,-999.0,42,0.00,,,0.00,meteohub,2013-01-31 21:03:00,
2013-01-31 15:08:00,22.1,2.5,29.57,North,-999,-999.0,-999.0,42,0.00,,,0.00,meteohub,2013-01-31 21:08:00,
2013-01-31 15:13:00,21.9,2.3,29.57,North,-999,-999.0,-999.0,42,0.00,,,0.00,meteohub,2013-01-31 21:13:00,
2013-01-31 15:19:00,21.7,2.1,29.57,North,-999,-999.0,-999.0,42,0.00,,,0.00,meteohub,2013-01-31 21:19:00,
2013-01-31 15:24:00,22.1,2.5,29.57,North,-999,-999.0,-999.0,42,0.00,,,0.00,meteohub,2013-01-31 21:24:00,
2013-01-31 15:29:00,22.3,2.7,29.57,North,-999,-999.0,-999.0,42,0.00,,,0.00,meteohub,2013-01-31 21:29:00,
2013-01-31 15:35:00,21.2,2.1,29.57,North,-999,-999.0,-999.0,43,0.00,,,0.00,meteohub,2013-01-31 21:35:00,
2013-01-31 15:40:00,21.0,1.9,29.57,North,-999,-999.0,-999.0,43,0.00,,,0.00,meteohub,2013-01-31 21:40:00,
2013-01-31 15:45:00,20.7,1.8,29.57,North,-999,-999.0,-999.0,43,0.00,,,0.00,meteohub,2013-01-31 21:45:00,
2013-01-31 15:51:00,19.9,1.0,29.57,North,-999,-999.0,-999.0,43,0.00,,,0.00,meteohub,2013-01-31 21:51:00,
2013-01-31 15:56:00,19.6,0.7,29.57,North,-999,-999.0,-999.0,43,0.00,,,0.00,meteohub,2013-01-31 21:56:00,
2013-01-31 16:01:00,19.2,0.3,29.57,North,-999,-999.0,-999.0,43,0.00,,,0.00,meteohub,2013-01-31 22:01:00,
2013-01-31 16:07:00,19.0,0.1,29.57,North,-999,-999.0,-999.0,43,0.00,,,0.00,meteohub,2013-01-31 22:07:00,
2013-01-31 16:12:00,18.3,-0.4,29.60,North,-999,-999.0,-999.0,43,0.00,,,0.00,meteohub,2013-01-31 22:12:00,
2013-01-31 16:17:00,18.1,-0.6,29.60,North,-999,-999.0,-999.0,43,0.00,,,0.00,meteohub,2013-01-31 22:17:00,
2013-01-31 16:22:00,17.2,-0.9,29.60,North,-999,-999.0,-999.0,44,0.00,,,0.00,meteohub,2013-01-31 22:22:00,
2013-01-31 16:27:00,16.5,-1.7,29.60,North,-999,-999.0,-999.0,44,0.00,,,0.00,meteohub,2013-01-31 22:27:00,
2013-01-31 16:33:00,16.2,-1.8,29.60,North,-999,-999.0,-999.0,44,0.00,,,0.00,meteohub,2013-01-31 22:33:00,
2013-01-31 16:38:00,15.8,-2.2,29.60,North,-999,-999.0,-999.0,44,0.00,,,0.00,meteohub,2013-01-31 22:38:00,
2013-01-31 16:43:00,15.4,-2.6,29.63,North,-999,-999.0,-999.0,44,0.00,,,0.00,meteohub,2013-01-31 22:43:00,
2013-01-31 16:49:00,15.4,-2.6,29.63,North,-999,-999.0,-999.0,44,0.00,,,0.00,meteohub,2013-01-31 22:49:00,
2013-01-31 16:54:00,15.6,-2.4,29.63,North,-999,-999.0,-999.0,44,0.00,,,0.00,meteohub,2013-01-31 22:54:00,
2013-01-31 16:59:00,15.4,-2.6,29.63,North,-999,-999.0,-999.0,44,0.00,,,0.00,meteohub,2013-01-31 22:59:00,
2013-01-31 17:05:00,15.3,-2.7,29.63,North,-999,-999.0,-999.0,44,0.00,,,0.00,meteohub,2013-01-31 23:05:00,
2013-01-31 17:10:00,15.3,-2.7,29.63,North,-999,-999.0,-999.0,44,0.00,,,0.00,meteohub,2013-01-31 23:10:00,
2013-01-31 17:15:00,15.1,-2.9,29.63,North,-999,-999.0,-999.0,44,0.00,,,0.00,meteohub,2013-01-31 23:15:00,
2013-01-31 17:21:00,15.1,-2.9,29.63,North,-999,-999.0,-999.0,44,0.00,,,0.00,meteohub,2013-01-31 23:21:00,
2013-01-31 17:26:00,14.9,-3.1,29.63,North,-999,-999.0,-999.0,44,0.00,,,0.00,meteohub,2013-01-31 23:26:00,
2013-01-31 17:31:00,14.5,-3.5,29.63,North,-999,-999.0,-999.0,44,0.00,,,0.00,meteohub,2013-01-31 23:31:00,
2013-01-31 17:37:00,14.4,-3.6,29.63,North,-999,-999.0,-999.0,44,0.00,,,0.00,meteohub,2013-01-31 23:37:00,
2013-01-31 17:42:00,14.2,-3.8,29.63,North,-999,-999.0,-999.0,44,0.00,,,0.00,meteohub,2013-01-31 23:42:00,
2013-01-31 17:47:00,14.0,-3.8,29.63,North,-999,-999.0,-999.0,44,0.00,,,0.00,meteohub,2013-01-31 23:47:00,
2013-01-31 17:52:00,14.2,-3.8,29.63,North,-999,-999.0,-999.0,44,0.00,,,0.00,meteohub,2013-01-31 23:52:00,
2013-01-31 17:57:00,14.0,-3.8,29.66,North,-999,-999.0,-999.0,44,0.00,,,0.00,meteohub,2013-01-31 23:57:00,
2013-01-31 18:02:00,13.8,-4.0,29.66,North,-999,-999.0,-999.0,44,0.00,,,0.00,meteohub,2013-02-01 00:02:00,
2013-01-31 18:07:00,13.6,-4.2,29.66,North,-999,-999.0,-999.0,44,0.00,,,0.00,meteohub,2013-02-01 00:07:00,
2013-01-31 18:13:00,13.6,-4.2,29.66,North,-999,-999.0,-999.0,44,0.00,,,0.00,meteohub,2013-02-01 00:13:00,
2013-01-31 18:18:00,13.6,-4.2,29.66,North,-999,-999.0,-999.0,44,0.00,,,0.00,meteohub,2013-02-01 00:18:00,
2013-01-31 18:23:00,13.5,-4.4,29.66,North,-999,-999.0,-999.0,44,0.00,,,0.00,meteohub,2013-02-01 00:23:00,
2013-01-31 18:28:00,13.3,-4.5,29.66,North,-999,-999.0,-999.0,44,0.00,,,0.00,meteohub,2013-02-01 00:28:00,
2013-01-31 18:34:00,13.3,-4.5,29.66,North,-999,-999.0,-999.0,44,0.00,,,0.00,meteohub,2013-02-01 00:34:00,
2013-01-31 18:39:00,12.9,-4.9,29.69,North,-999,-999.0,-999.0,44,0.00,,,0.00,meteohub,2013-02-01 00:39:00,
2013-01-31 18:44:00,12.9,-4.9,29.69,North,-999,-999.0,-999.0,44,0.00,,,0.00,meteohub,2013-02-01 00:44:00,
2013-01-31 18:50:00,12.7,-5.1,29.69,North,-999,-999.0,-999.0,44,0.00,,,0.00,meteohub,2013-02-01 00:50:00,
2013-01-31 18:55:00,12.7,-5.1,29.69,North,-999,-999.0,-999.0,44,0.00,,,0.00,meteohub,2013-02-01 00:55:00,
2013-01-31 19:00:00,12.7,-5.1,29.69,North,-999,-999.0,-999.0,44,0.00,,,0.00,meteohub,2013-02-01 01:00:00,
2013-01-31 19:06:00,12.7,-5.1,29.69,North,-999,-999.0,-999.0,44,0.00,,,0.00,meteohub,2013-02-01 01:06:00,
2013-01-31 19:11:00,12.6,-5.3,29.72,North,-999,-999.0,-999.0,44,0.00,,,0.00,meteohub,2013-02-01 01:11:00,
2013-01-31 19:16:00,12.6,-5.3,29.72,North,-999,-999.0,-999.0,44,0.00,,,0.00,meteohub,2013-02-01 01:16:00,
2013-01-31 19:21:00,12.6,-5.3,29.72,North,-999,-999.0,-999.0,44,0.00,,,0.00,meteohub,2013-02-01 01:21:00,
2013-01-31 19:26:00,12.4,-5.4,29.72,North,-999,-999.0,-999.0,44,0.00,,,0.00,meteohub,2013-02-01 01:26:00,
2013-01-31 19:32:00,12.2,-5.6,29.72,North,-999,-999.0,-999.0,44,0.00,,,0.00,meteohub,2013-02-01 01:32:00,
2013-01-31 19:37:00,12.0,-5.8,29.72,North,-999,-999.0,-999.0,44,0.00,,,0.00,meteohub,2013-02-01 01:37:00,
2013-01-31 19:42:00,12.0,-5.8,29.72,North,-999,-999.0,-999.0,44,0.00,,,0.00,meteohub,2013-02-01 01:42:00,
2013-01-31 19:47:00,11.8,-5.8,29.72,North,-999,-999.0,-999.0,44,0.00,,,0.00,meteohub,2013-02-01 01:47:00,
2013-01-31 19:52:00,11.7,-6.0,29.72,North,-999,-999.0,-999.0,44,0.00,,,0.00,meteohub,2013-02-01 01:52:00,
2013-01-31 19:57:00,11.7,-6.0,29.72,North,-999,-999.0,-999.0,44,0.00,,,0.00,meteohub,2013-02-01 01:57:00,
2013-01-31 20:02:00,11.5,-6.2,29.72,North,-999,-999.0,-999.0,44,0.00,,,0.00,meteohub,2013-02-01 02:02:00,
2013-01-31 20:08:00,11.5,-6.2,29.72,North,-999,-999.0,-999.0,44,0.00,,,0.00,meteohub,2013-02-01 02:08:00,
2013-01-31 20:13:00,11.3,-6.3,29.72,North,-999,-999.0,-999.0,44,0.00,,,0.00,meteohub,2013-02-01 02:13:00,
2013-01-31 20:18:00,11.3,-6.3,29.72,North,-999,-999.0,-999.0,44,0.00,,,0.00,meteohub,2013-02-01 02:18:00,
2013-01-31 20:23:00,11.3,-6.3,29.72,North,-999,-999.0,-999.0,44,0.00,,,0.00,meteohub,2013-02-01 02:23:00,
2013-01-31 20:29:00,11.3,-6.3,29.75,North,-999,-999.0,-999.0,44,0.00,,,0.00,meteohub,2013-02-01 02:29:00,
2013-01-31 20:34:00,11.1,-6.5,29.75,North,-999,-999.0,-999.0,44,0.00,,,0.00,meteohub,2013-02-01 02:34:00,
2013-01-31 20:39:00,11.1,-6.5,29.75,North,-999,-999.0,-999.0,44,0.00,,,0.00,meteohub,2013-02-01 02:39:00,
2013-01-31 20:44:00,10.9,-6.7,29.75,North,-999,-999.0,-999.0,44,0.00,,,0.00,meteohub,2013-02-01 02:44:00,
2013-01-31 20:49:00,10.9,-6.7,29.75,North,-999,-999.0,-999.0,44,0.00,,,0.00,meteohub,2013-02-01 02:49:00,
2013-01-31 20:55:00,10.9,-6.7,29.75,North,-999,-999.0,-999.0,44,0.00,,,0.00,meteohub,2013-02-01 02:55:00,
2013-01-31 21:00:00,10.8,-6.9,29.75,North,-999,-999.0,-999.0,44,0.00,,,0.00,meteohub,2013-02-01 03:00:00,
2013-01-31 21:05:00,10.8,-6.9,29.75,North,-999,-999.0,-999.0,44,0.00,,,0.00,meteohub,2013-02-01 03:05:00,
2013-01-31 21:11:00,10.8,-6.9,29.78,North,-999,-999.0,-999.0,44,0.00,,,0.00,meteohub,2013-02-01 03:11:00,
2013-01-31 21:16:00,10.6,-7.1,29.78,North,-999,-999.0,-999.0,44,0.00,,,0.00,meteohub,2013-02-01 03:16:00,
2013-01-31 21:21:00,10.4,-7.2,29.78,North,-999,-999.0,-999.0,44,0.00,,,0.00,meteohub,2013-02-01 03:21:00,
2013-01-31 21:26:00,10.4,-7.2,29.78,North,-999,-999.0,-999.0,44,0.00,,,0.00,meteohub,2013-02-01 03:26:00,
2013-01-31 21:32:00,10.4,-7.2,29.78,North,-999,-999.0,-999.0,44,0.00,,,0.00,meteohub,2013-02-01 03:32:00,
2013-01-31 21:37:00,10.4,-7.2,29.78,North,-999,-999.0,-999.0,44,0.00,,,0.00,meteohub,2013-02-01 03:37:00,
2013-01-31 21:42:00,10.2,-7.4,29.78,North,-999,-999.0,-999.0,44,0.00,,,0.00,meteohub,2013-02-01 03:42:00,
2013-01-31 21:47:00,10.0,-7.6,29.78,North,-999,-999.0,-999.0,44,0.00,,,0.00,meteohub,2013-02-01 03:47:00,
2013-01-31 21:52:00,10.2,-7.4,29.78,North,-999,-999.0,-999.0,44,0.00,,,0.00,meteohub,2013-02-01 03:52:00,
2013-01-31 21:57:00,10.2,-7.4,29.78,North,-999,-999.0,-999.0,44,0.00,,,0.00,meteohub,2013-02-01 03:57:00,
2013-01-31 22:03:00,10.2,-7.4,29.78,North,-999,-999.0,-999.0,44,0.00,,,0.00,meteohub,2013-02-01 04:03:00,
2013-01-31 22:08:00,10.2,-7.4,29.78,North,-999,-999.0,-999.0,44,0.00,,,0.00,meteohub,2013-02-01 04:08:00,
2013-01-31 22:13:00,10.4,-7.2,29.81,North,-999,-999.0,-999.0,44,0.00,,,0.00,meteohub,2013-02-01 04:13:00,
2013-01-31 22:18:00,10.2,-7.4,29.81,North,-999,-999.0,-999.0,44,0.00,,,0.00,meteohub,2013-02-01 04:18:00,
2013-01-31 22:23:00,10.2,-7.4,29.81,North,-999,-999.0,-999.0,44,0.00,,,0.00,meteohub,2013-02-01 04:23:00,
2013-01-31 22:29:00,10.0,-7.6,29.81,North,-999,-999.0,-999.0,44,0.00,,,0.00,meteohub,2013-02-01 04:29:00,
2013-01-31 22:34:00,10.2,-7.4,29.81,North,-999,-999.0,-999.0,44,0.00,,,0.00,meteohub,2013-02-01 04:34:00,
2013-01-31 22:39:00,10.0,-7.6,29.81,North,-999,-999.0,-999.0,44,0.00,,,0.00,meteohub,2013-02-01 04:39:00,
2013-01-31 22:45:00,9.9,-7.8,29.81,North,-999,-999.0,-999.0,44,0.00,,,0.00,meteohub,2013-02-01 04:45:00,
2013-01-31 22:50:00,9.7,-7.8,29.81,North,-999,-999.0,-999.0,44,0.00,,,0.00,meteohub,2013-02-01 04:50:00,
2013-01-31 22:55:00,9.7,-7.8,29.81,North,-999,-999.0,-999.0,44,0.00,,,0.00,meteohub,2013-02-01 04:55:00,
2013-01-31 23:00:00,9.5,-8.0,29.81,North,-999,-999.0,-999.0,44,0.00,,,0.00,meteohub,2013-02-01 05:00:00,
2013-01-31 23:01:00,9.5,-8.0,29.81,North,-999,-999.0,-999.0,44,0.00,,,0.00,meteohub,2013-02-01 05:01:00,
2013-01-31 23:02:00,9.5,-8.0,29.81,North,-999,-999.0,-999.0,44,0.00,,,0.00,meteohub,2013-02-01 05:02:00,
2013-01-31 23:07:00,9.3,-8.1,29.81,North,-999,-999.0,-999.0,44,0.00,,,0.00,meteohub,2013-02-01 05:07:00,
2013-01-31 23:12:00,9.3,-8.1,29.81,North,-999,-999.0,-999.0,44,0.00,,,0.00,meteohub,2013-02-01 05:12:00,
2013-01-31 23:18:00,9.3,-8.1,29.81,North,-999,-999.0,-999.0,44,0.00,,,0.00,meteohub,2013-02-01 05:18:00,
2013-01-31 23:23:00,9.1,-8.3,29.81,North,-999,-999.0,-999.0,44,0.00,,,0.00,meteohub,2013-02-01 05:23:00,
2013-01-31 23:28:00,9.3,-8.1,29.81,North,-999,-999.0,-999.0,44,0.00,,,0.00,meteohub,2013-02-01 05:28:00,
2013-01-31 23:34:00,9.5,-8.0,29.81,North,-999,-999.0,-999.0,44,0.00,,,0.00,meteohub,2013-02-01 05:34:00,
2013-01-31 23:39:00,9.7,-7.8,29.81,North,-999,-999.0,-999.0,44,0.00,,,0.00,meteohub,2013-02-01 05:39:00,
2013-01-31 23:44:00,9.5,-8.0,29.78,North,-999,-999.0,-999.0,44,0.00,,,0.00,meteohub,2013-02-01 05:44:00,
2013-01-31 23:50:00,9.5,-8.0,29.78,North,-999,-999.0,-999.0,44,0.00,,,0.00,meteohub,2013-02-01 05:50:00,
2013-01-31 23:55:00,9.3,-8.1,29.81,North,-999,-999.0,-999.0,44,0.00,,,0.00,meteohub,2013-02-01 05:55:00,